Time;durP1;ratioP1;P1;durP2;ratioP2;P2;SDS_P1;SDS_P2;PMS_P1;PMS_P2;Temp;Humidity;BMP_temperature;BMP_pressure;BME280_temperature;BME280_humidity;BME280_pressure;Samples;Min_cycle;Max_cycle;Signal;HPM_P1;HPM_P2
2022/09/29 00:00:00;;;;;;;2.63;2.42;;;;;;;5.22;100.00;91566.53;2131104;27;20034;-71
2022/09/29 00:01:02;;;;;;;2.90;2.45;;;;;;;5.14;100.00;91567.91;2131396;27;20033;-71
2022/09/29 00:02:03;;;;;;;4.18;2.80;;;;;;;5.15;100.00;91564.09;2130790;27;20035;-71
2022/09/29 00:03:04;;;;;;;5.38;2.63;;;;;;;5.12;100.00;91562.28;2122489;27;20019;-73
2022/09/29 00:04:05;;;;;;;3.33;2.83;;;;;;;5.18;100.00;91565.88;2122631;27;20571;-73
2022/09/29 00:05:07;;;;;;;4.97;2.80;;;;;;;5.22;100.00;91555.94;2131068;27;20035;-71
2022/09/29 00:06:15;;;;;;;5.80;2.60;;;;;;;5.14;100.00;91566.00;2131237;27;20440;-72
2022/09/29 00:07:16;;;;;;;4.50;2.92;;;;;;;5.20;100.00;91564.31;2127802;27;20426;-70
2022/09/29 00:08:19;;;;;;;2.78;2.40;;;;;;;5.23;100.00;91568.03;2131262;27;20034;-70
2022/09/29 00:09:20;;;;;;;4.55;2.70;;;;;;;5.26;100.00;91557.34;2131653;27;20046;-70
2022/09/29 00:10:22;;;;;;;2.75;2.55;;;;;;;5.23;100.00;91555.53;2131397;27;20019;-71
2022/09/29 00:11:23;;;;;;;3.38;2.65;;;;;;;5.19;100.00;91562.84;2131184;27;20083;-70
2022/09/29 00:12:25;;;;;;;4.80;3.00;;;;;;;5.19;100.00;91565.50;2131264;27;20060;-70
2022/09/29 00:13:26;;;;;;;3.15;2.85;;;;;;;5.23;100.00;91565.41;2130830;27;20069;-72
2022/09/29 00:14:26;;;;;;;6.88;2.80;;;;;;;5.14;100.00;91565.25;2131598;27;20027;-71
2022/09/29 00:15:27;;;;;;;3.13;2.83;;;;;;;5.19;100.00;91572.69;2131141;27;20019;-70
2022/09/29 00:16:28;;;;;;;9.55;2.50;;;;;;;5.17;100.00;91567.78;2131393;27;20039;-71
2022/09/29 00:17:29;;;;;;;4.28;2.50;;;;;;;5.20;100.00;91560.94;2131163;27;20410;-69
2022/09/29 00:18:33;;;;;;;2.80;2.58;;;;;;;5.24;100.00;91558.94;2130561;27;20033;-70
2022/09/29 00:19:34;;;;;;;3.75;3.05;;;;;;;5.25;100.00;91566.44;2131547;27;20076;-70
2022/09/29 00:20:35;;;;;;;5.25;3.00;;;;;;;5.25;100.00;91563.06;2131483;27;20046;-70
2022/09/29 00:21:36;;;;;;;5.50;3.00;;;;;;;5.19;100.00;91554.91;2131702;27;20097;-72
2022/09/29 00:22:37;;;;;;;3.33;2.47;;;;;;;5.21;100.00;91557.84;2131221;27;20023;-70
2022/09/29 00:23:38;;;;;;;2.92;2.63;;;;;;;5.22;100.00;91550.66;2128304;27;20072;-70
2022/09/29 00:24:39;;;;;;;10.10;2.80;;;;;;;5.24;100.00;91557.03;2131462;27;20054;-70
2022/09/29 00:25:40;;;;;;;2.70;2.50;;;;;;;5.25;100.00;91555.84;2131351;27;20037;-71
2022/09/29 00:26:41;;;;;;;3.17;2.58;;;;;;;5.21;100.00;91555.19;2131613;27;20027;-70
2022/09/29 00:27:42;;;;;;;4.50;2.38;;;;;;;5.27;100.00;91558.09;2127230;27;20035;-73
2022/09/29 00:28:51;;;;;;;7.40;2.63;;;;;;;5.18;100.00;91564.00;2129865;27;20027;-70
2022/09/29 00:29:52;;;;;;;7.15;2.53;;;;;;;5.18;100.00;91560.59;2130902;27;20058;-71
2022/09/29 00:30:53;;;;;;;3.78;2.78;;;;;;;5.25;100.00;91558.50;2131121;27;20035;-71
2022/09/29 00:31:54;;;;;;;4.28;2.60;;;;;;;5.24;100.00;91562.31;2131433;27;20084;-72
2022/09/29 00:32:55;;;;;;;4.70;2.60;;;;;;;5.27;100.00;91563.41;2131421;27;20064;-73
2022/09/29 00:33:57;;;;;;;5.88;2.30;;;;;;;5.25;100.00;91560.41;2130788;27;20038;-71
2022/09/29 00:34:59;;;;;;;6.75;2.45;;;;;;;5.25;100.00;91552.47;2131403;27;20022;-73
2022/09/29 00:36:04;;;;;;;6.00;2.83;;;;;;;5.26;100.00;91554.69;2121409;27;20497;-71
2022/09/29 00:37:05;;;;;;;3.95;2.53;;;;;;;5.25;100.00;91563.06;2114098;27;20061;-73
2022/09/29 00:38:06;;;;;;;6.22;2.80;;;;;;;5.22;100.00;91566.53;2122198;27;20168;-71
2022/09/29 00:39:07;;;;;;;4.57;2.67;;;;;;;5.18;100.00;91560.59;2130965;27;20042;-71
2022/09/29 00:40:08;;;;;;;3.28;2.80;;;;;;;5.18;100.00;91557.94;2131264;27;20085;-70
2022/09/29 00:41:19;;;;;;;6.38;2.47;;;;;;;5.21;100.00;91565.06;2131170;27;20050;-72
2022/09/29 00:42:19;;;;;;;3.08;2.78;;;;;;;5.22;100.00;91554.06;2127650;27;20488;-72
2022/09/29 00:43:50;;;;;;;6.38;2.58;;;;;;;5.21;100.00;91563.16;2131032;27;20122;-73
2022/09/29 00:45:02;;;;;;;3.15;2.80;;;;;;;5.17;100.00;91569.69;2128367;27;20375;-71
2022/09/29 00:46:06;;;;;;;5.60;2.70;;;;;;;5.11;100.00;91563.44;2121581;27;20621;-72
2022/09/29 00:47:12;;;;;;;3.08;2.83;;;;;;;5.11;100.00;91560.78;2122176;27;20107;-73
2022/09/29 00:48:20;;;;;;;3.97;2.58;;;;;;;5.15;100.00;91564.09;2127148;27;20508;-71
2022/09/29 00:49:42;;;;;;;2.67;2.38;;;;;;;5.16;100.00;91560.28;2130034;27;20122;-72
2022/09/29 00:50:51;;;;;;;2.78;2.50;;;;;;;5.16;100.00;91557.63;2127006;27;20211;-72
2022/09/29 00:52:07;;;;;;;3.53;2.90;;;;;;;5.14;100.00;91560.72;2122068;27;20472;-73
2022/09/29 00:53:11;;;;;;;4.88;3.00;;;;;;;5.18;100.00;91560.59;2125109;27;20023;-71
2022/09/29 00:54:12;;;;;;;6.38;3.08;;;;;;;5.13;100.00;91559.19;2121538;27;20043;-73
2022/09/29 00:55:35;;;;;;;5.15;3.00;;;;;;;5.11;100.00;91560.78;2109007;27;20047;-73
2022/09/29 00:56:40;;;;;;;4.85;2.40;;;;;;;5.11;100.00;91561.53;2120903;27;20549;-73
2022/09/29 00:58:04;;;;;;;4.60;2.45;;;;;;;5.13;100.00;91564.50;2130834;27;20056;-73
2022/09/29 00:59:22;;;;;;;5.53;2.90;;;;;;;5.15;100.00;91554.25;2129113;27;20706;-72
2022/09/29 01:00:31;;;;;;;7.25;2.53;;;;;;;5.21;100.00;91551.81;2128204;27;20475;-73
2022/09/29 01:01:37;;;;;;;3.17;2.80;;;;;;;5.20;100.00;91559.03;2130343;27;20121;-76
2022/09/29 01:02:47;;;;;;;4.90;2.70;;;;;;;5.26;100.00;91559.97;2130658;27;20033;-73
2022/09/29 01:03:54;;;;;;;4.55;2.63;;;;;;;5.26;100.00;91559.25;2127437;27;20041;-73
2022/09/29 01:05:00;;;;;;;5.18;3.10;;;;;;;5.26;100.00;91553.94;2130626;27;20488;-73
2022/09/29 01:06:11;;;;;;;2.63;2.42;;;;;;;5.25;100.00;91563.06;2130582;27;20037;-72
2022/09/29 01:07:21;;;;;;;4.45;2.60;;;;;;;5.21;100.00;91557.84;2126655;27;20727;-73
2022/09/29 01:08:35;;;;;;;3.10;2.60;;;;;;;5.26;100.00;91553.94;2130768;27;20095;-73
2022/09/29 01:09:39;;;;;;;6.35;2.40;;;;;;;5.26;100.00;91557.34;2130044;27;20023;-73
2022/09/29 01:10:43;;;;;;;6.00;3.00;;;;;;;5.25;100.00;91560.41;2131021;27;20038;-72
2022/09/29 01:11:51;;;;;;;3.13;2.83;;;;;;;5.33;100.00;91547.72;2126520;27;20026;-73
2022/09/29 01:12:59;;;;;;;4.68;2.83;;;;;;;5.40;100.00;91558.88;2130347;27;20030;-73
2022/09/29 01:14:09;;;;;;;3.42;2.97;;;;;;;5.30;100.00;91557.25;2130469;27;20368;-73
2022/09/29 01:15:11;;;;;;;4.47;2.50;;;;;;;5.29;100.00;91556.50;2116777;27;20477;-72
2022/09/29 01:16:20;;;;;;;4.00;2.53;;;;;;;5.32;100.00;91554.94;2116915;27;20376;-73
2022/09/29 01:17:26;;;;;;;4.32;2.85;;;;;;;5.27;100.00;91553.53;2122397;27;20061;-72
2022/09/29 01:18:36;;;;;;;7.15;2.88;;;;;;;5.27;100.00;91553.53;2122332;27;20068;-71
2022/09/29 01:19:51;;;;;;;4.75;2.67;;;;;;;5.35;100.00;91548.78;2121803;27;20779;-72
2022/09/29 01:21:11;;;;;;;2.90;2.70;;;;;;;5.30;100.00;91554.59;2119070;27;20031;-72
2022/09/29 01:22:39;;;;;;;4.03;2.97;;;;;;;5.28;100.00;91544.44;2118022;27;20516;-71
2022/09/29 01:24:08;;;;;;;4.75;2.70;;;;;;;5.33;100.00;91551.13;2122309;27;20110;-71
2022/09/29 01:25:42;;;;;;;4.25;2.65;;;;;;;5.29;100.00;91542.50;2078621;28;20070;-71
2022/09/29 01:27:43;;;;;;;6.15;2.95;;;;;;;5.30;100.00;91544.72;2117263;27;20114;-71
2022/09/29 01:28:56;;;;;;;4.15;2.70;;;;;;;5.31;100.00;91540.19;2087621;28;20169;-72
2022/09/29 01:30:26;;;;;;;6.78;2.80;;;;;;;5.32;100.00;91539.03;2087436;28;20525;-71
2022/09/29 01:31:43;;;;;;;2.67;2.45;;;;;;;5.48;100.00;91544.25;2085798;28;20036;-72
2022/09/29 01:33:12;;;;;;;5.18;2.35;;;;;;;5.44;100.00;91542.84;2087046;28;20379;-71
2022/09/29 01:34:24;;;;;;;4.63;2.53;;;;;;;5.38;100.00;91539.25;2106328;27;20044;-71
2022/09/29 01:35:34;;;;;;;2.97;2.70;;;;;;;5.50;100.00;91528.69;2122422;27;20111;-71
2022/09/29 01:37:16;;;;;;;4.18;2.42;;;;;;;5.40;100.00;91539.56;2121683;27;20030;-72
2022/09/29 01:38:17;;;;;;;3.28;2.20;;;;;;;5.33;100.00;91540.50;2092287;28;20039;-72
2022/09/29 01:39:24;;;;;;;4.75;2.65;;;;;;;5.37;100.00;91535.13;2115686;27;20039;-71
2022/09/29 01:40:37;;;;;;;3.97;2.65;;;;;;;5.33;100.00;91524.63;2122005;27;20022;-71
2022/09/29 01:41:49;;;;;;;2.33;2.13;;;;;;;5.41;100.00;91525.91;2121627;27;20448;-71
2022/09/29 01:43:14;;;;;;;3.30;2.28;;;;;;;5.49;100.00;91531.75;2122169;27;20469;-72
2022/09/29 01:44:49;;;;;;;2.63;2.40;;;;;;;5.69;100.00;91527.00;2118643;27;20031;-71
2022/09/29 01:46:16;;;;;;;2.15;1.83;;;;;;;5.67;100.00;91528.59;2114413;27;20132;-72
2022/09/29 01:47:21;;;;;;;3.35;1.88;;;;;;;5.44;100.00;91538.28;2120830;27;20034;-73
2022/09/29 01:48:28;;;;;;;2.75;2.00;;;;;;;5.45;100.00;91531.84;2122357;27;20068;-72
2022/09/29 01:49:33;;;;;;;3.30;2.28;;;;;;;5.43;100.00;91534.16;2122241;27;20035;-72
2022/09/29 01:50:42;;;;;;;2.58;2.38;;;;;;;5.34;100.00;91530.66;2122369;27;20422;-72
2022/09/29 01:51:53;;;;;;;4.72;2.45;;;;;;;5.35;100.00;91529.50;2117399;27;20026;-72
2022/09/29 01:53:01;;;;;;;2.90;2.60;;;;;;;5.26;100.00;91530.09;2121927;27;20038;-72
2022/09/29 01:54:08;;;;;;;8.38;2.75;;;;;;;5.24;100.00;91527.16;2122183;27;20027;-74
2022/09/29 01:55:15;;;;;;;3.88;2.58;;;;;;;5.18;100.00;91534.88;2121403;27;20046;-72
2022/09/29 01:56:33;;;;;;;4.57;2.45;;;;;;;5.18;100.00;91531.47;2116613;27;20027;-72
2022/09/29 01:57:53;;;;;;;3.72;2.40;;;;;;;5.23;100.00;91531.69;2121381;27;20037;-72
2022/09/29 01:59:04;;;;;;;6.18;2.65;;;;;;;5.19;100.00;91540.91;2118467;27;20414;-72
2022/09/29 02:00:08;;;;;;;2.35;2.15;;;;;;;5.22;100.00;91540.06;2122061;27;20039;-72
2022/09/29 02:01:12;;;;;;;2.70;2.50;;;;;;;5.18;100.00;91536.75;2122306;27;20031;-72
2022/09/29 02:02:21;;;;;;;2.92;2.63;;;;;;;5.16;100.00;91536.44;2117252;27;20035;-71
2022/09/29 02:03:33;;;;;;;5.63;2.72;;;;;;;5.22;100.00;91530.22;2122000;27;20113;-72
2022/09/29 02:04:43;;;;;;;7.13;2.72;;;;;;;5.24;100.00;91532.44;2121867;27;20615;-73
2022/09/29 02:05:50;;;;;;;2.75;2.53;;;;;;;5.17;100.00;91530.72;2117796;27;20035;-71
2022/09/29 02:06:58;;;;;;;4.88;2.58;;;;;;;5.08;100.00;91532.50;2122292;27;20476;-71
2022/09/29 02:08:11;;;;;;;3.72;2.58;;;;;;;5.15;100.00;91532.31;2121276;27;20468;-72
2022/09/29 02:09:20;;;;;;;3.08;2.38;;;;;;;5.21;100.00;91525.31;2122310;27;20084;-71
2022/09/29 02:10:28;;;;;;;3.05;2.60;;;;;;;5.25;100.00;91528.63;2118675;27;20031;-71
2022/09/29 02:11:35;;;;;;;2.80;2.53;;;;;;;5.24;100.00;91521.84;2121280;27;20027;-72
2022/09/29 02:12:39;;;;;;;6.65;3.10;;;;;;;5.24;100.00;91530.53;2121165;27;20084;-71
2022/09/29 02:13:46;;;;;;;4.50;2.45;;;;;;;5.26;100.00;91530.09;2121889;27;20079;-72
2022/09/29 02:14:49;;;;;;;3.50;2.75;;;;;;;5.24;100.00;91532.44;2118673;27;20361;-72
2022/09/29 02:15:54;;;;;;;6.53;2.50;;;;;;;5.18;100.00;91529.56;2125014;27;20045;-71
2022/09/29 02:17:12;;;;;;;4.65;2.63;;;;;;;5.18;100.00;91523.50;2130193;27;20031;-70
2022/09/29 02:18:21;;;;;;;4.43;2.80;;;;;;;5.20;100.00;91529.16;2127091;27;20035;-71
2022/09/29 02:19:26;;;;;;;5.47;2.78;;;;;;;5.14;100.00;91525.53;2130621;27;20034;-71
2022/09/29 02:20:32;;;;;;;5.18;2.42;;;;;;;5.17;100.00;91522.03;2130709;27;20087;-71
2022/09/29 02:21:33;;;;;;;4.13;2.67;;;;;;;5.18;100.00;91518.22;2130615;27;20872;-72
2022/09/29 02:22:34;;;;;;;2.45;2.20;;;;;;;5.18;100.00;91518.22;2130089;27;20109;-71
2022/09/29 02:23:35;;;;;;;3.85;2.58;;;;;;;5.20;100.00;91518.56;2129483;27;20027;-72
2022/09/29 02:24:37;;;;;;;4.10;2.63;;;;;;;5.21;100.00;91522.69;2130586;27;20049;-71
2022/09/29 02:25:39;;;;;;;3.10;2.70;;;;;;;5.24;100.00;91521.84;2130547;27;20034;-72
2022/09/29 02:26:44;;;;;;;3.78;2.40;;;;;;;5.23;100.00;91533.63;2126382;27;20023;-70
2022/09/29 02:27:48;;;;;;;5.82;2.33;;;;;;;5.21;100.00;91525.31;2126218;27;20125;-71
2022/09/29 02:28:51;;;;;;;5.72;2.60;;;;;;;5.23;100.00;91525.66;2129369;27;20022;-71
2022/09/29 02:29:53;;;;;;;5.38;2.78;;;;;;;5.18;100.00;91518.97;2130680;27;20368;-72
2022/09/29 02:30:56;;;;;;;6.18;2.75;;;;;;;5.10;100.00;91522.25;2130596;27;20498;-70
2022/09/29 02:32:00;;;;;;;2.67;2.47;;;;;;;5.18;100.00;91526.16;2121145;28;20064;-71
2022/09/29 02:33:01;;;;;;;4.28;2.50;;;;;;;5.19;100.00;91517.81;2122198;27;20050;-71
2022/09/29 02:34:05;;;;;;;4.25;2.30;;;;;;;5.20;100.00;91523.84;2129467;27;20793;-71
2022/09/29 02:35:09;;;;;;;4.22;2.33;;;;;;;5.17;100.00;91522.03;2130205;27;20089;-71
2022/09/29 02:36:13;;;;;;;6.03;2.53;;;;;;;5.21;100.00;91523.41;2130406;27;20022;-71
2022/09/29 02:37:38;;;;;;;3.38;2.63;;;;;;;5.20;100.00;91516.66;2126401;27;20019;-71
2022/09/29 02:39:07;;;;;;;5.35;2.55;;;;;;;5.21;100.00;91517.38;2129852;27;20022;-71
2022/09/29 02:40:39;;;;;;;2.50;2.28;;;;;;;5.22;100.00;91516.22;2129374;27;20091;-71
2022/09/29 02:42:01;;;;;;;6.75;2.35;;;;;;;5.24;100.00;91521.84;2130245;27;20091;-71
2022/09/29 02:43:27;;;;;;;2.72;2.42;;;;;;;5.22;100.00;91519.63;2129128;27;20042;-73
2022/09/29 02:44:48;;;;;;;3.90;2.80;;;;;;;5.29;100.00;91521.31;2128246;27;20050;-73
2022/09/29 02:46:10;;;;;;;2.80;2.50;;;;;;;5.26;100.00;91519.50;2126564;27;20038;-71
2022/09/29 02:47:45;;;;;;;4.93;2.33;;;;;;;5.19;100.00;91515.16;2130585;27;20023;-72
2022/09/29 02:48:48;;;;;;;3.03;2.40;;;;;;;5.22;100.00;91513.56;2126379;27;20109;-71
2022/09/29 02:50:27;;;;;;;7.63;2.65;;;;;;;5.20;100.00;91515.91;2127047;27;20414;-72
2022/09/29 02:51:35;;;;;;;2.70;2.38;;;;;;;5.32;100.00;91520.50;2118790;28;20045;-71
2022/09/29 02:53:16;;;;;;;3.90;2.60;;;;;;;5.35;100.00;91505.63;2124785;27;20031;-71
2022/09/29 02:55:00;;;;;;;2.78;2.50;;;;;;;5.36;100.00;91501.84;2128590;27;20033;-71
2022/09/29 02:56:25;;;;;;;2.42;2.13;;;;;;;5.34;100.00;91518.16;2129988;27;20034;-71
2022/09/29 02:57:34;;;;;;;4.18;2.60;;;;;;;5.34;100.00;91512.84;2129922;27;20030;-70
2022/09/29 02:58:48;;;;;;;3.65;2.40;;;;;;;5.29;100.00;91505.44;2130198;27;20030;-72
2022/09/29 03:00:10;;;;;;;3.20;2.30;;;;;;;5.28;100.00;91503.94;2126202;27;20562;-70
2022/09/29 03:01:31;;;;;;;2.95;2.10;;;;;;;5.32;100.00;91504.59;2128613;27;20027;-71
2022/09/29 03:02:52;;;;;;;5.35;2.70;;;;;;;5.25;100.00;91500.22;2127002;27;20055;-70
2022/09/29 03:04:12;;;;;;;4.18;2.50;;;;;;;5.27;100.00;91497.19;2129820;27;20504;-71
2022/09/29 03:05:33;;;;;;;3.85;2.30;;;;;;;5.24;100.00;91508.59;2129634;27;20767;-71
2022/09/29 03:06:53;;;;;;;5.95;2.10;;;;;;;5.32;100.00;91498.56;2127776;27;20030;-71
2022/09/29 03:08:15;;;;;;;3.50;2.58;;;;;;;5.32;100.00;91501.94;2126323;27;20490;-71
2022/09/29 03:09:36;;;;;;;2.60;2.40;;;;;;;5.25;100.00;91510.09;2129521;27;20041;-71
2022/09/29 03:10:56;;;;;;;3.42;2.80;;;;;;;5.29;100.00;91498.22;2129725;27;20066;-73
2022/09/29 03:12:19;;;;;;;2.83;2.40;;;;;;;5.28;100.00;91498.66;2128395;27;20487;-70
2022/09/29 03:13:40;;;;;;;4.18;2.45;;;;;;;5.32;100.00;91496.66;2131934;27;20037;-70
2022/09/29 03:15:00;;;;;;;6.13;2.35;;;;;;;5.29;100.00;91494.84;2130087;27;20118;-70
2022/09/29 03:16:21;;;;;;;3.05;2.67;;;;;;;5.27;100.00;91489.22;2127855;27;20053;-70
2022/09/29 03:17:41;;;;;;;3.40;2.40;;;;;;;5.23;100.00;91485.94;2132010;27;20087;-70
2022/09/29 03:19:04;;;;;;;4.68;2.47;;;;;;;5.24;100.00;91485.50;2130537;27;20031;-70
2022/09/29 03:20:25;;;;;;;6.72;2.60;;;;;;;5.25;100.00;91483.59;2129176;27;20529;-70
2022/09/29 03:21:45;;;;;;;3.03;2.63;;;;;;;5.21;100.00;91491.63;2129206;27;20040;-73
2022/09/29 03:23:06;;;;;;;6.40;2.80;;;;;;;5.23;100.00;91494.63;2131889;27;20072;-70
2022/09/29 03:24:26;;;;;;;6.43;3.40;;;;;;;5.17;100.00;91496.28;2131874;27;20031;-70
2022/09/29 03:25:47;;;;;;;4.25;3.15;;;;;;;5.17;100.00;91500.84;2128300;27;20058;-71
2022/09/29 03:27:11;;;;;;;4.00;3.08;;;;;;;5.18;100.00;91497.03;2124098;27;20035;-73
2022/09/29 03:28:31;;;;;;;4.53;3.38;;;;;;;5.23;100.00;91493.88;2129971;27;20464;-71
2022/09/29 03:29:52;;;;;;;4.30;2.75;;;;;;;5.24;100.00;91488.16;2123742;27;20031;-70
2022/09/29 03:31:12;;;;;;;5.32;3.25;;;;;;;5.15;100.00;91490.69;2127488;27;20026;-72
2022/09/29 03:32:33;;;;;;;4.85;3.10;;;;;;;5.21;100.00;91486.34;2130540;27;20046;-72
2022/09/29 03:33:53;;;;;;;4.68;2.72;;;;;;;5.21;100.00;91490.91;2129144;27;20023;-70
2022/09/29 03:35:14;;;;;;;5.20;3.22;;;;;;;5.22;100.00;91487.84;2096510;28;20040;-71
2022/09/29 03:36:35;;;;;;;5.13;2.80;;;;;;;5.22;100.00;91484.44;2087126;28;20044;-71
2022/09/29 03:37:59;;;;;;;3.38;3.05;;;;;;;5.23;100.00;91488.59;2096653;28;20037;-73
2022/09/29 03:39:20;;;;;;;3.13;2.60;;;;;;;5.24;100.00;91490.81;2105061;28;20138;-70
2022/09/29 03:40:41;;;;;;;3.30;2.50;;;;;;;5.34;100.00;91494.31;2079325;28;20087;-71
2022/09/29 03:42:02;;;;;;;4.47;3.15;;;;;;;5.28;100.00;91496.75;2087883;28;20056;-70
2022/09/29 03:43:22;;;;;;;3.42;3.13;;;;;;;5.35;100.00;91501.09;2077305;28;20049;-71
2022/09/29 03:44:43;;;;;;;4.82;2.58;;;;;;;5.33;100.00;91497.38;2092679;28;20453;-72
2022/09/29 03:46:04;;;;;;;4.18;2.50;;;;;;;5.44;100.00;91492.50;2078614;28;20826;-70
2022/09/29 03:47:25;;;;;;;6.22;2.60;;;;;;;5.44;100.00;91493.25;2093722;28;20036;-70
2022/09/29 03:48:46;;;;;;;4.20;2.92;;;;;;;5.54;100.00;91492.22;2102382;28;20060;-70
2022/09/29 03:50:07;;;;;;;3.42;3.10;;;;;;;5.48;100.00;91496.53;2104186;28;20128;-70
2022/09/29 03:51:28;;;;;;;5.10;3.60;;;;;;;5.43;100.00;91489.13;2080098;28;20099;-70
2022/09/29 03:52:48;;;;;;;7.45;4.20;;;;;;;5.46;100.00;91492.84;2079106;28;20844;-70
2022/09/29 03:54:10;;;;;;;6.00;4.45;;;;;;;5.42;100.00;91490.28;2098359;28;20565;-70
2022/09/29 03:55:31;;;;;;;7.85;4.72;;;;;;;5.38;100.00;91496.84;2071908;28;20532;-69
2022/09/29 03:56:51;;;;;;;9.63;4.93;;;;;;;5.40;100.00;91491.88;2111273;28;20041;-70
2022/09/29 03:58:13;;;;;;;6.22;3.90;;;;;;;5.47;100.00;91496.97;2096544;28;20029;-70
2022/09/29 03:59:33;;;;;;;8.10;3.65;;;;;;;5.61;100.00;91496.56;2104810;28;20052;-70
2022/09/29 04:00:54;;;;;;;7.45;3.60;;;;;;;5.49;100.00;91494.66;2095930;28;20081;-71
2022/09/29 04:02:17;;;;;;;5.03;3.60;;;;;;;5.55;100.00;91492.97;2100850;28;20067;-70
2022/09/29 04:03:37;;;;;;;6.75;3.58;;;;;;;5.57;100.00;91498.56;2078874;28;20046;-71
2022/09/29 04:04:58;;;;;;;5.35;3.75;;;;;;;5.52;100.00;91496.44;2086216;28;20087;-71
2022/09/29 04:06:19;;;;;;;6.80;3.90;;;;;;;5.51;100.00;91503.66;2096226;28;20133;-71
2022/09/29 04:07:40;;;;;;;10.45;4.40;;;;;;;5.43;100.00;91502.38;2100269;28;20072;-71
2022/09/29 04:09:01;;;;;;;10.23;3.88;;;;;;;5.42;100.00;91497.50;2119876;27;20035;-70
2022/09/29 04:10:21;;;;;;;7.53;4.90;;;;;;;5.39;100.00;91495.69;2123307;27;20377;-73
2022/09/29 04:11:42;;;;;;;9.35;5.07;;;;;;;5.37;100.00;91495.38;2121940;27;20027;-70
2022/09/29 04:13:03;;;;;;;11.30;6.35;;;;;;;5.26;100.00;91491.09;2127150;27;20195;-70
2022/09/29 04:14:23;;;;;;;11.57;6.13;;;;;;;5.32;100.00;91495.91;2124658;27;20483;-71
2022/09/29 04:15:25;;;;;;;9.23;5.35;;;;;;;5.32;100.00;91493.25;2131573;27;20043;-71
2022/09/29 04:16:26;;;;;;;10.57;5.80;;;;;;;5.27;100.00;91492.63;2130868;27;20046;-70
2022/09/29 04:17:26;;;;;;;11.15;5.72;;;;;;;5.25;100.00;91499.50;2131096;27;20414;-71
2022/09/29 04:18:28;;;;;;;8.05;5.22;;;;;;;5.25;100.00;91494.94;2131243;27;20384;-71
2022/09/29 04:19:29;;;;;;;10.50;5.55;;;;;;;5.30;100.00;91501.59;2131330;27;20098;-73
2022/09/29 04:20:30;;;;;;;13.55;6.60;;;;;;;5.32;100.00;91498.56;2130915;27;20529;-69
2022/09/29 04:21:31;;;;;;;10.73;6.70;;;;;;;5.30;100.00;91497.06;2121541;27;20030;-70
2022/09/29 04:22:32;;;;;;;11.20;5.75;;;;;;;5.30;100.00;91504.25;2122304;27;20019;-70
2022/09/29 04:23:33;;;;;;;10.18;6.25;;;;;;;5.28;100.00;91503.94;2131077;27;20142;-70
2022/09/29 04:24:34;;;;;;;12.73;6.30;;;;;;;5.23;100.00;91505.22;2131158;27;20041;-70
2022/09/29 04:25:35;;;;;;;9.90;6.03;;;;;;;5.24;100.00;91512.00;2130683;27;20161;-70
2022/09/29 04:26:36;;;;;;;9.48;6.43;;;;;;;5.22;100.00;91509.03;2131210;27;20057;-70
2022/09/29 04:27:37;;;;;;;9.20;5.93;;;;;;;5.25;100.00;91515.38;2131350;27;20089;-70
2022/09/29 04:28:38;;;;;;;9.20;5.72;;;;;;;5.24;100.00;91508.59;2131056;27;20041;-70
2022/09/29 04:29:39;;;;;;;7.00;5.20;;;;;;;5.27;100.00;91513.06;2130760;27;20371;-71
2022/09/29 04:30:40;;;;;;;7.60;4.40;;;;;;;5.24;100.00;91516.56;2124151;27;20049;-71
2022/09/29 04:31:41;;;;;;;7.90;5.10;;;;;;;5.20;100.00;91508.69;2131083;27;20023;-71
2022/09/29 04:32:43;;;;;;;8.48;4.47;;;;;;;5.26;100.00;91506.25;2131391;27;20027;-71
2022/09/29 04:33:44;;;;;;;7.13;5.03;;;;;;;5.29;100.00;91508.81;2127362;27;20072;-71
2022/09/29 04:34:47;;;;;;;10.00;4.88;;;;;;;5.30;100.00;91509.56;2131411;27;20075;-73
2022/09/29 04:36:07;;;;;;;6.22;4.43;;;;;;;5.28;100.00;91507.34;2130483;27;20819;-71
2022/09/29 04:37:28;;;;;;;6.05;4.20;;;;;;;5.21;100.00;91506.78;2128798;27;20175;-70
2022/09/29 04:38:50;;;;;;;9.50;5.10;;;;;;;5.23;100.00;91504.47;2127357;27;20058;-71
2022/09/29 04:40:10;;;;;;;6.25;5.07;;;;;;;5.30;100.00;91512.22;2131179;27;20026;-71
2022/09/29 04:41:33;;;;;;;10.23;4.25;;;;;;;5.25;100.00;91512.72;2129111;27;20035;-71
2022/09/29 04:42:54;;;;;;;4.95;3.97;;;;;;;5.18;100.00;91507.63;2127590;27;20095;-74
2022/09/29 04:43:55;;;;;;;7.38;4.18;;;;;;;5.18;100.00;91515.56;2130323;27;20027;-70
2022/09/29 04:44:56;;;;;;;9.15;5.25;;;;;;;5.24;100.00;91508.59;2131397;27;20026;-72
2022/09/29 04:46:03;;;;;;;6.20;4.35;;;;;;;5.27;100.00;91508.50;2131156;27;20043;-71
2022/09/29 04:47:04;;;;;;;7.20;4.55;;;;;;;5.31;100.00;91505.75;2130405;27;20460;-72
2022/09/29 04:48:05;;;;;;;8.73;5.32;;;;;;;5.32;100.00;91509.16;2122083;27;20031;-71
2022/09/29 04:49:06;;;;;;;11.25;5.95;;;;;;;5.26;100.00;91509.66;2118126;27;20066;-70
2022/09/29 04:50:08;;;;;;;11.63;6.03;;;;;;;5.28;100.00;91509.25;2126505;27;20480;-71
2022/09/29 04:51:09;;;;;;;9.18;6.22;;;;;;;5.26;100.00;91511.56;2127003;27;20029;-70
2022/09/29 04:52:11;;;;;;;9.80;6.50;;;;;;;5.33;100.00;91511.38;2123558;27;20384;-70
2022/09/29 04:53:12;;;;;;;10.55;6.78;;;;;;;5.30;100.00;91512.94;2128462;27;20043;-71
2022/09/29 04:54:14;;;;;;;13.23;7.70;;;;;;;5.32;100.00;91501.94;2127763;27;20026;-72
2022/09/29 04:55:15;;;;;;;8.27;6.13;;;;;;;5.30;100.00;91504.25;2126976;27;20029;-70
2022/09/29 04:56:16;;;;;;;14.43;6.57;;;;;;;5.34;100.00;91512.13;2128180;27;20037;-70
2022/09/29 04:57:17;;;;;;;11.50;5.88;;;;;;;5.34;100.00;91501.50;2126047;27;20495;-70
2022/09/29 04:58:19;;;;;;;11.90;6.35;;;;;;;5.37;100.00;91508.63;2128569;27;20758;-72
2022/09/29 04:59:20;;;;;;;12.63;6.70;;;;;;;5.38;100.00;91510.09;2128709;27;20023;-70
2022/09/29 05:00:21;;;;;;;11.25;7.32;;;;;;;5.31;100.00;91508.38;2128457;27;20117;-70
2022/09/29 05:01:22;;;;;;;12.15;7.25;;;;;;;5.29;100.00;91505.44;2127825;27;20035;-71
2022/09/29 05:02:23;;;;;;;11.00;6.97;;;;;;;5.25;100.00;91513.47;2122220;27;20438;-71
2022/09/29 05:03:25;;;;;;;10.68;7.00;;;;;;;5.25;100.00;91520.69;2127621;27;20091;-71
2022/09/29 05:04:26;;;;;;;10.43;7.28;;;;;;;5.26;100.00;91516.84;2128327;27;20027;-70
2022/09/29 05:05:27;;;;;;;8.70;6.43;;;;;;;5.27;100.00;91515.72;2127838;27;20023;-70
2022/09/29 05:06:28;;;;;;;11.70;7.05;;;;;;;5.35;100.00;91519.63;2127987;27;20082;-71
2022/09/29 05:07:29;;;;;;;8.38;6.40;;;;;;;5.39;100.00;91519.53;2126703;27;20058;-74
2022/09/29 05:08:30;;;;;;;13.15;6.65;;;;;;;5.44;100.00;91527.69;2122022;27;20477;-71
2022/09/29 05:09:31;;;;;;;8.98;6.30;;;;;;;5.40;100.00;91518.38;2127153;27;20217;-72
2022/09/29 05:10:32;;;;;;;10.02;6.78;;;;;;;5.32;100.00;91522.41;2128754;27;20688;-71
2022/09/29 05:11:33;;;;;;;13.43;6.40;;;;;;;5.32;100.00;91517.09;2128845;27;20384;-72
2022/09/29 05:12:34;;;;;;;8.35;6.20;;;;;;;5.36;100.00;91523.78;2128661;27;20026;-71
2022/09/29 05:13:36;;;;;;;8.60;5.88;;;;;;;5.33;100.00;91527.28;2126169;27;20102;-70
2022/09/29 05:14:37;;;;;;;8.20;5.78;;;;;;;5.34;100.00;91531.41;2119275;27;20798;-71
2022/09/29 05:15:38;;;;;;;7.68;6.30;;;;;;;5.37;100.00;91530.56;2119260;27;20031;-72
2022/09/29 05:16:39;;;;;;;9.10;6.00;;;;;;;5.31;100.00;91529.56;2119544;27;20054;-70
2022/09/29 05:17:40;;;;;;;10.73;5.78;;;;;;;5.34;100.00;91528.75;2119506;27;20027;-72
2022/09/29 05:18:42;;;;;;;10.75;5.63;;;;;;;5.36;100.00;91531.72;2119682;27;20034;-71
2022/09/29 05:19:43;;;;;;;12.90;5.53;;;;;;;5.35;100.00;91529.50;2106803;28;20092;-71
2022/09/29 05:20:44;;;;;;;7.85;5.72;;;;;;;5.36;100.00;91536.28;2110874;28;20019;-71
2022/09/29 05:21:45;;;;;;;12.27;5.40;;;;;;;5.35;100.00;91540.81;2119936;27;20031;-73
2022/09/29 05:22:46;;;;;;;8.43;5.18;;;;;;;5.28;100.00;91533.81;2120317;27;20030;-71
2022/09/29 05:23:47;;;;;;;7.18;5.03;;;;;;;5.31;100.00;91534.88;2119403;27;20030;-71
2022/09/29 05:24:49;;;;;;;6.30;4.85;;;;;;;5.41;100.00;91541.06;2119153;27;20035;-71
2022/09/29 05:25:50;;;;;;;6.63;4.88;;;;;;;5.32;100.00;91541.69;2119690;27;20459;-71
2022/09/29 05:26:52;;;;;;;10.73;5.07;;;;;;;5.28;100.00;91539.13;2119924;27;20140;-71
2022/09/29 05:27:54;;;;;;;11.55;6.10;;;;;;;5.28;100.00;91536.47;2119935;27;20031;-71
2022/09/29 05:28:55;;;;;;;8.00;5.13;;;;;;;5.29;100.00;91537.22;2117852;27;20049;-71
2022/09/29 05:29:56;;;;;;;6.57;4.82;;;;;;;5.23;100.00;91544.22;2119427;27;20074;-71